Погода Корумбана 2 недели

Мату-Гросу-ду-Сул, Бразилия

26 февраля-10 марта
  • 26февраля
    Сегодня
    +24°
    +35°
    Облачно с прояснениями
    ВремяПогодаТемператураВлажностьДавлениеВетер, м/сВероятность осадков
    02:00Облачно с прояснениями+24°C94 %752 мм0.6 м/с5 %
    05:00Небольшая облачность+24°C97 %752 мм0.7 м/с5 %
    08:00Небольшая облачность+28°C79 %753 мм1.9 м/с5 %
    11:00Практически безоблачно+32°C57 %753 мм2.8 м/с3 %
    14:00Облачно с прояснениями+34°C53 %750 мм2.9 м/с2 %
    17:00Облачно с прояснениями+32°C55 %748 мм2.5 м/с3 %
    20:00Облачно с прояснениями+28°C75 %750 мм1.7 м/с3 %
    23:00Облачно с прояснениями+26°C82 %751 мм0.7 м/с5 %
  • 27февраля
    Вторник
    +25°
    +36°
    Небольшая облачность, возможен дождь с грозой
    ВремяПогодаТемператураВлажностьДавлениеВетер, м/сВероятность осадков
    02:00Облачно с прояснениями+26°C81 %750 мм0.5 м/с5 %
    05:00Облачно с прояснениями+24°C91 %750 мм0.8 м/с6 %
    08:00Небольшая облачность+28°C70 %751 мм1.9 м/с12 %
    11:00Ясно и безоблачно+32°C60 %750 мм2.5 м/с7 %
    14:00Небольшая облачность, возможен дождь с грозой+32°C79 %750 мм3.6 м/с58 %
    17:00Небольшая облачность+31°C68 %747 мм2.6 м/с23 %
    20:00Ясно и безоблачно+28°C84 %748 мм1.4 м/с14 %
    23:00Небольшая облачность+26°C88 %750 мм1.5 м/с9 %
  • 28февраля
    Среда
    +25°
    +35°
    Ясно и безоблачно
    ВремяПогодаТемператураВлажностьДавлениеВетер, м/сВероятность осадков
    02:00Ясно и безоблачно+26°C93 %750 мм1.5 м/с11 %
    05:00Ясно и безоблачно+25°C96 %750 мм0.9 м/с17 %
    08:00Ясно и безоблачно+28°C83 %751 мм2.0 м/с7 %
    11:00Ясно и безоблачно+32°C61 %751 мм2.8 м/с3 %
    14:00Ясно и безоблачно+34°C53 %748 мм3.4 м/с4 %
    17:00Ясно и безоблачно+32°C64 %747 мм2.8 м/с6 %
    20:00Ясно и безоблачно+29°C82 %748 мм1.2 м/с4 %
    23:00Ясно и безоблачно+27°C86 %750 мм1.5 м/с5 %
  • 29февраля
    Четверг
    +25°
    +36°
    Ясно и безоблачно
    ВремяПогодаТемператураВлажностьДавлениеВетер, м/сВероятность осадков
    02:00Ясно и безоблачно+27°C84 %750 мм0.7 м/с5 %
    05:00Ясно и безоблачно+26°C86 %750 мм0.3 м/с3 %
    08:00Ясно и безоблачно+29°C74 %751 мм1.8 м/с5 %
    11:00Ясно и безоблачно+33°C53 %751 мм3.0 м/с3 %
    14:00Ясно и безоблачно+36°C47 %749 мм3.3 м/с5 %
    17:00Ясно и безоблачно+33°C51 %748 мм2.8 м/с5 %
    20:00Практически безоблачно+28°C72 %749 мм1.5 м/с3 %
    23:00Ясно и безоблачно+27°C82 %750 мм1.5 м/с7 %
  • 01марта
    Пятница
    +25°
    +37°
    Практически безоблачно
    ВремяПогодаТемператураВлажностьДавлениеВетер, м/сВероятность осадков
    02:00Ясно и безоблачно+26°C84 %749 мм1.5 м/с5 %
    05:00Ясно и безоблачно+26°C85 %750 мм1.3 м/с9 %
    08:00Ясно и безоблачно+30°C71 %751 мм1.9 м/с5 %
    11:00Ясно и безоблачно+33°C49 %751 мм2.5 м/с5 %
    14:00Практически безоблачно+36°C45 %749 мм2.8 м/с5 %
    17:00Ясно и безоблачно+34°C47 %747 мм2.3 м/с10 %
    20:00Ясно и безоблачно+29°C73 %748 мм1.6 м/с16 %
    23:00Ясно и безоблачно+28°C75 %749 мм1.2 м/с13 %
Мы используем cookies
Соглашаюсь